createdAt,value
2023-01-29T00:03:44.306Z,101609.56
2023-01-29T00:08:48.052Z,101605.41
2023-01-29T00:13:51.847Z,101591.78
2023-01-29T00:18:56.496Z,101585.97
2023-01-29T00:24:00.532Z,101584.22
2023-01-29T00:29:04.019Z,101580.03
2023-01-29T00:34:08.679Z,101574.97
2023-01-29T00:39:11.977Z,101579.34
2023-01-29T00:44:32.673Z,101586.34
2023-01-29T00:49:37.362Z,101582.97
2023-01-29T00:54:40.685Z,101573.69
2023-01-29T00:59:44.034Z,101556.59
2023-01-29T01:04:48.828Z,101551.59
2023-01-29T01:10:09.604Z,101565.44
2023-01-29T01:15:13.247Z,101558.69
2023-01-29T01:20:18.340Z,101567.28
2023-01-29T01:25:22.272Z,101557.97
2023-01-29T01:30:26.523Z,101542.69
2023-01-29T01:35:31.245Z,101535.00
2023-01-29T01:40:34.483Z,101530.88
2023-01-29T01:45:38.289Z,101527.50
2023-01-29T01:50:46.271Z,101520.75
2023-01-29T01:55:54.395Z,101535.41
2023-01-29T02:00:58.290Z,101540.63
2023-01-29T02:06:20.538Z,101532.91
2023-01-29T02:11:23.905Z,101532.97
2023-01-29T02:16:27.956Z,101537.22
2023-01-29T02:21:52.159Z,101536.41
2023-01-29T02:27:05.059Z,101539.81
2023-01-29T02:32:20.220Z,101538.09
2023-01-29T02:37:32.315Z,101525.25
2023-01-29T02:42:40.110Z,101546.69
2023-01-29T02:47:50.345Z,101540.69
2023-01-29T02:53:00.771Z,101548.41
2023-01-29T02:58:08.871Z,101540.69
2023-01-29T03:03:18.303Z,101542.47
2023-01-29T03:08:37.196Z,101535.69
2023-01-29T03:13:45.954Z,101518.66
2023-01-29T03:18:56.267Z,101521.22
2023-01-29T03:24:19.394Z,101518.66
2023-01-29T03:29:40.742Z,101512.72
2023-01-29T03:34:51.811Z,101517.91
2023-01-29T03:39:55.982Z,101523.13
2023-01-29T03:45:08.667Z,101526.59
2023-01-29T03:50:28.637Z,101522.34
2023-01-29T03:55:39.403Z,101510.44
2023-01-29T04:00:51.861Z,101514.78
2023-01-29T04:06:10.114Z,101510.44
2023-01-29T04:11:18.791Z,101511.16
2023-01-29T04:16:27.598Z,101511.91
2023-01-29T04:21:33.051Z,101503.41
2023-01-29T04:26:56.619Z,101501.56
2023-01-29T04:32:11.682Z,101486.97
2023-01-29T04:37:22.972Z,101492.06
2023-01-29T04:42:31.593Z,101481.72
2023-01-29T04:47:38.332Z,101462.81
2023-01-29T04:52:51.334Z,101450.75
2023-01-29T04:58:02.623Z,101443.03
2023-01-29T05:03:09.849Z,101437.00
2023-01-29T05:08:17.124Z,101437.00
2023-01-29T05:13:23.111Z,101426.66
2023-01-29T05:18:26.247Z,101433.56
2023-01-29T05:23:30.755Z,101420.63
2023-01-29T05:28:34.100Z,101436.69
2023-01-29T05:33:37.317Z,101423.03
2023-01-29T05:38:41.951Z,101412.66
2023-01-29T05:43:45.065Z,101400.59
2023-01-29T05:48:48.471Z,101404.03
2023-01-29T05:53:53.263Z,101420.25
2023-01-29T05:58:56.778Z,101413.44
2023-01-29T06:04:00.117Z,101422.66
2023-01-29T06:09:04.986Z,101419.16
2023-01-29T06:14:08.046Z,101417.34
2023-01-29T06:19:11.375Z,101419.16
2023-01-29T06:24:16.205Z,101425.06
2023-01-29T06:29:19.339Z,101434.28
2023-01-29T06:34:22.459Z,101450.53
2023-01-29T06:39:27.106Z,101456.44
2023-01-29T06:44:30.341Z,101463.13
2023-01-29T06:49:33.665Z,101471.47
2023-01-29T06:54:38.387Z,101480.94
2023-01-29T06:59:41.671Z,101493.63
2023-01-29T07:04:44.736Z,101485.03
2023-01-29T07:09:49.383Z,101491.69
2023-01-29T07:14:52.951Z,101504.34
2023-01-29T07:19:56.127Z,101522.25
2023-01-29T07:25:00.866Z,101517.72
2023-01-29T07:30:04.021Z,101515.84
2023-01-29T07:35:08.010Z,101512.16
2023-01-29T07:40:13.989Z,101512.13
2023-01-29T07:45:17.263Z,101500.84
2023-01-29T07:50:20.659Z,101501.59
2023-01-29T07:55:26.209Z,101486.84
2023-01-29T08:00:30.318Z,101476.38
2023-01-29T08:05:34.383Z,101447.44
2023-01-29T08:10:40.896Z,101440.78
2023-01-29T08:15:45.657Z,101438.94
2023-01-29T08:20:49.347Z,101435.34
2023-01-29T08:25:54.250Z,101457.25
2023-01-29T08:30:57.655Z,101445.16
2023-01-29T08:36:00.921Z,101451.19
2023-01-29T08:41:05.682Z,101458.81
2023-01-29T08:46:09.255Z,101462.38
2023-01-29T08:51:12.612Z,101459.00
2023-01-29T08:56:17.465Z,101472.59
2023-01-29T09:01:20.900Z,101472.41
2023-01-29T09:06:24.107Z,101452.69
2023-01-29T09:11:28.676Z,101453.44
2023-01-29T09:16:31.942Z,101441.94
2023-01-29T09:21:35.140Z,101430.81
2023-01-29T09:26:40.447Z,101427.25
2023-01-29T09:31:43.724Z,101415.19
2023-01-29T09:36:47.115Z,101418.25
2023-01-29T09:41:57.952Z,101423.97
2023-01-29T09:47:05.033Z,101428.91
2023-01-29T09:52:15.875Z,101429.59
2023-01-29T09:57:28.927Z,101413.00
2023-01-29T10:02:56.696Z,101409.31
2023-01-29T10:08:36.004Z,101387.66
2023-01-29T10:13:49.440Z,101385.16
2023-01-29T10:19:18.734Z,101380.63
2023-01-29T10:24:31.974Z,101381.88
2023-01-29T10:29:37.064Z,101376.53
2023-01-29T10:34:46.874Z,101366.66
2023-01-29T10:39:50.258Z,101355.78
2023-01-29T10:45:08.554Z,101351.13
2023-01-29T10:50:20.256Z,101335.41
2023-01-29T10:55:37.061Z,101341.47
2023-01-29T11:00:42.979Z,101333.63
2023-01-29T11:06:00.921Z,101326.84
2023-01-29T11:11:09.907Z,101310.69
2023-01-29T11:16:14.673Z,101307.00
2023-01-29T11:21:17.912Z,101311.19
2023-01-29T11:26:24.142Z,101285.47
2023-01-29T11:31:37.235Z,101274.41
2023-01-29T11:36:41.677Z,101260.88
2023-01-29T11:41:46.362Z,101263.72
2023-01-29T11:46:52.486Z,101267.94
2023-01-29T11:51:58.394Z,101259.78
2023-01-29T11:57:08.846Z,101250.94
2023-01-29T12:02:28.262Z,101227.94
2023-01-29T12:07:33.056Z,101214.28
2023-01-29T12:12:41.833Z,101216.94
2023-01-29T12:17:52.677Z,101219.31
2023-01-29T12:23:04.640Z,101204.41
2023-01-29T12:28:17.352Z,101180.47
2023-01-29T12:33:40.035Z,101176.25
2023-01-29T12:38:46.050Z,101182.78
2023-01-29T12:43:52.600Z,101173.88
2023-01-29T12:49:03.118Z,101175.28
2023-01-29T12:54:09.694Z,101182.00
2023-01-29T12:59:21.197Z,101168.91
2023-01-29T13:04:35.503Z,101168.81
2023-01-29T13:09:40.907Z,101165.84
2023-01-29T13:14:56.577Z,101150.06
2023-01-29T13:20:06.366Z,101130.94
2023-01-29T13:25:16.335Z,101117.25
2023-01-29T13:30:28.507Z,101110.16
2023-01-29T13:35:34.522Z,101104.78
2023-01-29T13:40:38.560Z,101103.63
2023-01-29T13:45:45.858Z,101110.16
2023-01-29T13:50:52.949Z,101104.66
2023-01-29T13:55:56.496Z,101096.81
2023-01-29T14:01:02.359Z,101102.97
2023-01-29T14:06:07.379Z,101114.03
2023-01-29T14:11:37.024Z,101117.38
2023-01-29T14:16:40.429Z,101132.09
2023-01-29T14:22:02.825Z,101132.28
2023-01-29T14:27:21.853Z,101125.44
2023-01-29T14:32:26.343Z,101120.50
2023-01-29T14:37:39.534Z,101119.13
2023-01-29T14:42:49.226Z,101104.34
2023-01-29T14:48:30.878Z,101114.56
2023-01-29T14:53:49.709Z,101108.28
2023-01-29T14:58:58.619Z,101110.97
2023-01-29T15:04:06.190Z,101112.91
2023-01-29T15:09:16.852Z,101096.50
2023-01-29T15:14:30.423Z,101093.34
2023-01-29T15:19:44.853Z,101074.66
2023-01-29T15:25:04.789Z,101078.94
2023-01-29T15:30:19.769Z,101071.19
2023-01-29T15:35:31.352Z,101063.63
2023-01-29T15:40:45.119Z,101058.75
2023-01-29T15:45:49.383Z,101066.66
2023-01-29T15:50:59.793Z,101053.78
2023-01-29T15:56:10.378Z,101042.75
2023-01-29T16:01:33.254Z,101050.69
2023-01-29T16:06:41.180Z,101047.34
2023-01-29T16:11:50.679Z,101051.47
2023-01-29T16:16:55.111Z,101043.84
2023-01-29T16:22:01.689Z,101046.34
2023-01-29T16:27:13.286Z,101047.78
2023-01-29T16:32:23.112Z,101040.88
2023-01-29T16:37:31.397Z,101045.97
2023-01-29T16:42:38.135Z,101040.72
2023-01-29T16:47:48.888Z,101042.50
2023-01-29T16:53:02.207Z,101046.69
2023-01-29T16:58:16.356Z,101036.38
2023-01-29T17:03:26.289Z,101042.53
2023-01-29T17:08:37.983Z,101044.31
2023-01-29T17:13:45.296Z,101044.34
2023-01-29T17:18:51.208Z,101042.53
2023-01-29T17:23:55.601Z,101039.91
2023-01-29T17:29:08.819Z,101039.13
2023-01-29T17:34:19.752Z,101028.13
2023-01-29T17:39:27.699Z,101025.75
2023-01-29T17:44:32.685Z,101019.69
2023-01-29T17:49:37.466Z,101015.47
2023-01-29T17:54:43.434Z,101008.69
2023-01-29T17:59:48.114Z,100995.84
2023-01-29T18:04:54.284Z,100987.56
2023-01-29T18:10:00.873Z,100969.50
2023-01-29T18:15:05.860Z,100960.19
2023-01-29T18:20:20.486Z,100951.41
2023-01-29T18:25:25.579Z,100952.25
2023-01-29T18:30:34.761Z,100933.56
2023-01-29T18:35:44.281Z,100915.56
2023-01-29T18:40:47.957Z,100917.63
2023-01-29T18:46:00.848Z,100905.72
2023-01-29T18:51:07.856Z,100893.84
2023-01-29T18:56:11.784Z,100892.13
2023-01-29T19:01:22.385Z,100878.63
2023-01-29T19:06:41.343Z,100882.13
2023-01-29T19:11:44.718Z,100880.44
2023-01-29T19:16:52.175Z,100879.66
2023-01-29T19:21:55.688Z,100875.66
2023-01-29T19:27:09.457Z,100878.31
2023-01-29T19:32:19.959Z,100875.97
2023-01-29T19:37:23.310Z,100872.25
2023-01-29T19:42:27.429Z,100873.25
2023-01-29T19:47:41.908Z,100873.59
2023-01-29T19:52:51.917Z,100866.84
2023-01-29T19:57:58.092Z,100865.28
2023-01-29T20:03:02.807Z,100866.16
2023-01-29T20:08:06.211Z,100853.34
2023-01-29T20:13:13.443Z,100850.91
2023-01-29T20:18:18.661Z,100849.13
2023-01-29T20:23:37.223Z,100835.41
2023-01-29T20:28:43.345Z,100833.75
2023-01-29T20:33:48.012Z,100833.22
2023-01-29T20:38:57.113Z,100821.94
2023-01-29T20:44:00.668Z,100823.75
2023-01-29T20:49:06.914Z,100804.38
2023-01-29T20:54:12.913Z,100792.38
2023-01-29T20:59:16.650Z,100793.25
2023-01-29T21:04:22.320Z,100788.91
2023-01-29T21:09:25.565Z,100783.94
2023-01-29T21:14:29.010Z,100765.19
2023-01-29T21:19:34.368Z,100775.56
2023-01-29T21:24:37.995Z,100755.97
2023-01-29T21:29:42.005Z,100739.13
2023-01-29T21:34:46.681Z,100717.03
2023-01-29T21:39:49.936Z,100701.81
2023-01-29T21:44:53.457Z,100679.00
2023-01-29T21:49:58.035Z,100677.59
2023-01-29T21:55:01.306Z,100668.44
2023-01-29T22:00:04.729Z,100665.16
2023-01-29T22:05:18.947Z,100663.34
2023-01-29T22:10:23.518Z,100652.19
2023-01-29T22:15:28.124Z,100642.88
2023-01-29T22:20:32.786Z,100645.22
2023-01-29T22:25:40.699Z,100630.50
2023-01-29T22:30:43.920Z,100623.34
2023-01-29T22:35:54.934Z,100613.03
2023-01-29T22:41:05.035Z,100604.25
2023-01-29T22:46:09.183Z,100585.31
2023-01-29T22:51:14.576Z,100592.84
2023-01-29T22:56:19.019Z,100584.25
2023-01-29T23:01:23.930Z,100567.97
2023-01-29T23:06:28.835Z,100568.53
2023-01-29T23:11:31.963Z,100553.88
2023-01-29T23:16:35.149Z,100525.06
2023-01-29T23:21:40.644Z,100523.44
2023-01-29T23:27:01.429Z,100519.19
2023-01-29T23:32:04.713Z,100506.44
2023-01-29T23:37:09.290Z,100490.50
2023-01-29T23:42:12.451Z,100465.28
2023-01-29T23:47:15.665Z,100456.03
2023-01-29T23:52:20.350Z,100459.75
2023-01-29T23:57:23.717Z,100448.13
